sensor_id;sensor_type;location;lat;lon;timestamp;P1;durP1;ratioP1;P2;durP2;ratioP2
3297;SDS011;1661;53.572;10.174;2022-08-21T00:01:24;4.33;;;3.30;;
3297;SDS011;1661;53.572;10.174;2022-08-21T00:03:54;3.93;;;3.50;;
3297;SDS011;1661;53.572;10.174;2022-08-21T00:06:22;2.80;;;2.60;;
3297;SDS011;1661;53.572;10.174;2022-08-21T00:08:49;4.73;;;3.40;;
3297;SDS011;1661;53.572;10.174;2022-08-21T00:11:16;6.33;;;3.27;;
3297;SDS011;1661;53.572;10.174;2022-08-21T00:13:45;5.00;;;3.50;;
3297;SDS011;1661;53.572;10.174;2022-08-21T00:16:12;3.40;;;3.10;;
3297;SDS011;1661;53.572;10.174;2022-08-21T00:18:38;3.30;;;2.93;;
3297;SDS011;1661;53.572;10.174;2022-08-21T00:21:06;7.93;;;4.30;;
3297;SDS011;1661;53.572;10.174;2022-08-21T00:23:33;4.00;;;3.27;;
3297;SDS011;1661;53.572;10.174;2022-08-21T00:26:00;4.07;;;3.43;;
3297;SDS011;1661;53.572;10.174;2022-08-21T00:28:27;8.77;;;3.67;;
3297;SDS011;1661;53.572;10.174;2022-08-21T00:30:56;3.03;;;2.73;;
3297;SDS011;1661;53.572;10.174;2022-08-21T00:33:23;3.83;;;3.10;;
3297;SDS011;1661;53.572;10.174;2022-08-21T00:35:50;7.00;;;3.57;;
3297;SDS011;1661;53.572;10.174;2022-08-21T00:38:18;5.10;;;3.17;;
3297;SDS011;1661;53.572;10.174;2022-08-21T00:40:46;9.23;;;4.10;;
3297;SDS011;1661;53.572;10.174;2022-08-21T00:43:16;5.33;;;3.87;;
3297;SDS011;1661;53.572;10.174;2022-08-21T00:45:46;4.30;;;3.63;;
3297;SDS011;1661;53.572;10.174;2022-08-21T00:48:14;5.20;;;4.10;;
3297;SDS011;1661;53.572;10.174;2022-08-21T00:50:42;5.50;;;3.30;;
3297;SDS011;1661;53.572;10.174;2022-08-21T00:53:12;8.93;;;3.10;;
3297;SDS011;1661;53.572;10.174;2022-08-21T00:55:41;5.80;;;4.30;;
3297;SDS011;1661;53.572;10.174;2022-08-21T00:58:08;7.57;;;3.90;;
3297;SDS011;1661;53.572;10.174;2022-08-21T01:00:38;3.87;;;3.57;;
3297;SDS011;1661;53.572;10.174;2022-08-21T01:03:08;7.57;;;4.33;;
3297;SDS011;1661;53.572;10.174;2022-08-21T01:05:38;9.27;;;4.77;;
3297;SDS011;1661;53.572;10.174;2022-08-21T01:08:05;5.07;;;3.87;;
3297;SDS011;1661;53.572;10.174;2022-08-21T01:10:33;7.10;;;3.77;;
3297;SDS011;1661;53.572;10.174;2022-08-21T01:13:01;4.30;;;3.90;;
3297;SDS011;1661;53.572;10.174;2022-08-21T01:15:34;4.40;;;4.00;;
3297;SDS011;1661;53.572;10.174;2022-08-21T01:18:03;5.10;;;4.07;;
3297;SDS011;1661;53.572;10.174;2022-08-21T01:20:32;10.80;;;4.80;;
3297;SDS011;1661;53.572;10.174;2022-08-21T01:23:01;6.23;;;4.37;;
3297;SDS011;1661;53.572;10.174;2022-08-21T01:25:29;11.43;;;5.10;;
3297;SDS011;1661;53.572;10.174;2022-08-21T01:27:56;4.90;;;4.50;;
3297;SDS011;1661;53.572;10.174;2022-08-21T01:30:26;6.37;;;4.50;;
3297;SDS011;1661;53.572;10.174;2022-08-21T01:32:54;6.93;;;4.73;;
3297;SDS011;1661;53.572;10.174;2022-08-21T01:35:22;7.00;;;4.53;;
3297;SDS011;1661;53.572;10.174;2022-08-21T01:37:48;3.83;;;3.43;;
3297;SDS011;1661;53.572;10.174;2022-08-21T01:40:17;6.73;;;5.00;;
3297;SDS011;1661;53.572;10.174;2022-08-21T01:42:44;4.67;;;4.23;;
3297;SDS011;1661;53.572;10.174;2022-08-21T01:45:12;5.73;;;3.43;;
3297;SDS011;1661;53.572;10.174;2022-08-21T01:47:40;8.67;;;5.53;;
3297;SDS011;1661;53.572;10.174;2022-08-21T01:50:08;6.13;;;5.57;;
3297;SDS011;1661;53.572;10.174;2022-08-21T01:52:38;6.27;;;4.17;;
3297;SDS011;1661;53.572;10.174;2022-08-21T01:55:06;4.40;;;4.07;;
3297;SDS011;1661;53.572;10.174;2022-08-21T01:57:35;8.67;;;4.03;;
3297;SDS011;1661;53.572;10.174;2022-08-21T02:00:03;4.03;;;3.33;;
3297;SDS011;1661;53.572;10.174;2022-08-21T02:02:31;4.40;;;4.00;;
3297;SDS011;1661;53.572;10.174;2022-08-21T02:04:57;6.17;;;4.47;;
3297;SDS011;1661;53.572;10.174;2022-08-21T02:07:24;9.53;;;4.40;;
3297;SDS011;1661;53.572;10.174;2022-08-21T02:09:51;6.77;;;4.83;;
3297;SDS011;1661;53.572;10.174;2022-08-21T02:12:17;4.97;;;4.40;;
3297;SDS011;1661;53.572;10.174;2022-08-21T02:14:45;6.00;;;5.50;;
3297;SDS011;1661;53.572;10.174;2022-08-21T02:17:12;6.73;;;5.87;;
3297;SDS011;1661;53.572;10.174;2022-08-21T02:19:39;6.97;;;5.10;;
3297;SDS011;1661;53.572;10.174;2022-08-21T02:22:06;10.93;;;6.80;;
3297;SDS011;1661;53.572;10.174;2022-08-21T02:24:33;5.57;;;5.17;;
3297;SDS011;1661;53.572;10.174;2022-08-21T02:27:00;9.33;;;6.33;;
3297;SDS011;1661;53.572;10.174;2022-08-21T02:29:26;6.30;;;5.50;;
3297;SDS011;1661;53.572;10.174;2022-08-21T02:31:55;8.67;;;6.37;;
3297;SDS011;1661;53.572;10.174;2022-08-21T02:34:21;11.57;;;6.57;;
3297;SDS011;1661;53.572;10.174;2022-08-21T02:36:48;4.90;;;4.47;;
3297;SDS011;1661;53.572;10.174;2022-08-21T02:39:15;9.13;;;6.23;;
3297;SDS011;1661;53.572;10.174;2022-08-21T02:41:42;5.37;;;4.00;;
3297;SDS011;1661;53.572;10.174;2022-08-21T02:44:08;5.87;;;5.47;;
3297;SDS011;1661;53.572;10.174;2022-08-21T02:46:35;9.37;;;5.77;;
3297;SDS011;1661;53.572;10.174;2022-08-21T02:49:03;7.20;;;5.63;;
3297;SDS011;1661;53.572;10.174;2022-08-21T02:51:30;5.20;;;4.80;;
3297;SDS011;1661;53.572;10.174;2022-08-21T02:53:57;5.07;;;4.60;;
3297;SDS011;1661;53.572;10.174;2022-08-21T02:56:23;8.27;;;6.00;;
3297;SDS011;1661;53.572;10.174;2022-08-21T02:58:51;6.20;;;5.10;;
3297;SDS011;1661;53.572;10.174;2022-08-21T03:01:18;5.77;;;5.20;;
3297;SDS011;1661;53.572;10.174;2022-08-21T03:03:45;6.40;;;4.53;;
3297;SDS011;1661;53.572;10.174;2022-08-21T03:06:16;5.63;;;4.90;;
3297;SDS011;1661;53.572;10.174;2022-08-21T03:08:45;5.90;;;5.03;;
3297;SDS011;1661;53.572;10.174;2022-08-21T03:11:12;7.30;;;4.97;;
3297;SDS011;1661;53.572;10.174;2022-08-21T03:13:40;8.67;;;4.93;;
3297;SDS011;1661;53.572;10.174;2022-08-21T03:16:07;11.10;;;5.30;;
3297;SDS011;1661;53.572;10.174;2022-08-21T03:18:34;6.40;;;4.87;;
3297;SDS011;1661;53.572;10.174;2022-08-21T03:21:01;6.87;;;5.40;;
3297;SDS011;1661;53.572;10.174;2022-08-21T03:23:30;6.90;;;4.77;;
3297;SDS011;1661;53.572;10.174;2022-08-21T03:25:57;5.50;;;4.60;;
3297;SDS011;1661;53.572;10.174;2022-08-21T03:28:24;4.97;;;4.17;;
3297;SDS011;1661;53.572;10.174;2022-08-21T03:30:51;8.87;;;3.70;;
3297;SDS011;1661;53.572;10.174;2022-08-21T03:33:19;5.13;;;4.30;;
3297;SDS011;1661;53.572;10.174;2022-08-21T03:35:47;4.60;;;4.20;;
3297;SDS011;1661;53.572;10.174;2022-08-21T03:38:20;7.93;;;5.67;;
3297;SDS011;1661;53.572;10.174;2022-08-21T03:40:48;7.00;;;5.30;;
3297;SDS011;1661;53.572;10.174;2022-08-21T03:43:15;8.07;;;4.90;;
3297;SDS011;1661;53.572;10.174;2022-08-21T03:45:41;4.63;;;4.23;;
3297;SDS011;1661;53.572;10.174;2022-08-21T03:48:08;5.30;;;4.33;;
3297;SDS011;1661;53.572;10.174;2022-08-21T03:50:38;8.53;;;4.40;;
3297;SDS011;1661;53.572;10.174;2022-08-21T03:53:07;5.63;;;4.97;;
3297;SDS011;1661;53.572;10.174;2022-08-21T03:55:35;4.27;;;3.97;;
3297;SDS011;1661;53.572;10.174;2022-08-21T03:58:03;7.00;;;4.73;;
3297;SDS011;1661;53.572;10.174;2022-08-21T04:00:30;4.30;;;3.87;;
3297;SDS011;1661;53.572;10.174;2022-08-21T04:02:57;4.93;;;4.50;;
3297;SDS011;1661;53.572;10.174;2022-08-21T04:05:24;6.43;;;4.33;;
3297;SDS011;1661;53.572;10.174;2022-08-21T04:07:54;4.60;;;4.20;;
3297;SDS011;1661;53.572;10.174;2022-08-21T04:10:21;5.77;;;3.30;;
3297;SDS011;1661;53.572;10.174;2022-08-21T04:12:50;5.43;;;4.13;;
3297;SDS011;1661;53.572;10.174;2022-08-21T04:15:18;5.70;;;4.07;;
3297;SDS011;1661;53.572;10.174;2022-08-21T04:17:46;4.80;;;4.10;;
3297;SDS011;1661;53.572;10.174;2022-08-21T04:20:13;6.43;;;5.23;;
3297;SDS011;1661;53.572;10.174;2022-08-21T04:22:40;6.67;;;5.33;;
3297;SDS011;1661;53.572;10.174;2022-08-21T04:25:07;5.93;;;5.10;;
3297;SDS011;1661;53.572;10.174;2022-08-21T04:27:34;7.33;;;5.30;;
3297;SDS011;1661;53.572;10.174;2022-08-21T04:30:01;5.50;;;4.87;;
3297;SDS011;1661;53.572;10.174;2022-08-21T04:32:29;8.50;;;6.43;;
3297;SDS011;1661;53.572;10.174;2022-08-21T04:34:59;5.43;;;4.90;;
3297;SDS011;1661;53.572;10.174;2022-08-21T04:37:26;6.70;;;4.70;;
3297;SDS011;1661;53.572;10.174;2022-08-21T04:39:53;5.23;;;4.60;;
3297;SDS011;1661;53.572;10.174;2022-08-21T04:42:22;6.10;;;5.57;;
3297;SDS011;1661;53.572;10.174;2022-08-21T04:44:49;5.50;;;4.90;;
3297;SDS011;1661;53.572;10.174;2022-08-21T04:47:16;5.00;;;4.60;;
3297;SDS011;1661;53.572;10.174;2022-08-21T04:49:44;5.53;;;4.50;;
3297;SDS011;1661;53.572;10.174;2022-08-21T04:52:11;8.43;;;5.00;;
3297;SDS011;1661;53.572;10.174;2022-08-21T04:54:41;5.37;;;3.90;;
3297;SDS011;1661;53.572;10.174;2022-08-21T04:57:10;4.93;;;4.40;;
3297;SDS011;1661;53.572;10.174;2022-08-21T04:59:38;5.93;;;5.43;;
3297;SDS011;1661;53.572;10.174;2022-08-21T05:02:07;5.23;;;4.83;;
3297;SDS011;1661;53.572;10.174;2022-08-21T05:04:36;5.13;;;4.70;;
3297;SDS011;1661;53.572;10.174;2022-08-21T05:07:10;3.70;;;3.50;;
3297;SDS011;1661;53.572;10.174;2022-08-21T05:09:41;3.97;;;3.67;;
3297;SDS011;1661;53.572;10.174;2022-08-21T05:12:08;11.07;;;5.13;;
3297;SDS011;1661;53.572;10.174;2022-08-21T05:14:35;5.80;;;5.00;;
3297;SDS011;1661;53.572;10.174;2022-08-21T05:17:02;5.77;;;5.17;;
3297;SDS011;1661;53.572;10.174;2022-08-21T05:19:30;5.40;;;4.73;;
3297;SDS011;1661;53.572;10.174;2022-08-21T05:21:57;5.97;;;5.40;;
3297;SDS011;1661;53.572;10.174;2022-08-21T05:24:25;4.23;;;3.67;;
3297;SDS011;1661;53.572;10.174;2022-08-21T05:26:52;5.93;;;4.87;;
3297;SDS011;1661;53.572;10.174;2022-08-21T05:29:19;5.03;;;4.63;;
3297;SDS011;1661;53.572;10.174;2022-08-21T05:31:47;5.30;;;4.80;;
3297;SDS011;1661;53.572;10.174;2022-08-21T05:34:14;7.63;;;4.70;;
3297;SDS011;1661;53.572;10.174;2022-08-21T05:36:44;5.13;;;4.73;;
3297;SDS011;1661;53.572;10.174;2022-08-21T05:39:11;9.13;;;4.27;;
3297;SDS011;1661;53.572;10.174;2022-08-21T05:41:39;10.53;;;4.47;;
3297;SDS011;1661;53.572;10.174;2022-08-21T05:44:06;5.77;;;5.37;;
3297;SDS011;1661;53.572;10.174;2022-08-21T05:46:33;8.10;;;5.67;;
3297;SDS011;1661;53.572;10.174;2022-08-21T05:48:59;9.27;;;6.10;;
3297;SDS011;1661;53.572;10.174;2022-08-21T05:51:26;7.93;;;7.10;;
3297;SDS011;1661;53.572;10.174;2022-08-21T05:53:53;8.73;;;5.13;;
3297;SDS011;1661;53.572;10.174;2022-08-21T05:56:20;7.33;;;5.73;;
3297;SDS011;1661;53.572;10.174;2022-08-21T05:58:48;8.03;;;5.80;;
3297;SDS011;1661;53.572;10.174;2022-08-21T06:01:15;8.50;;;5.20;;
3297;SDS011;1661;53.572;10.174;2022-08-21T06:03:41;13.13;;;5.60;;
3297;SDS011;1661;53.572;10.174;2022-08-21T06:06:08;15.47;;;6.60;;
3297;SDS011;1661;53.572;10.174;2022-08-21T06:08:35;7.43;;;5.80;;
3297;SDS011;1661;53.572;10.174;2022-08-21T06:11:03;8.50;;;6.33;;
3297;SDS011;1661;53.572;10.174;2022-08-21T06:13:31;5.43;;;4.90;;
3297;SDS011;1661;53.572;10.174;2022-08-21T06:16:01;6.70;;;5.63;;
3297;SDS011;1661;53.572;10.174;2022-08-21T06:18:31;6.40;;;5.50;;
3297;SDS011;1661;53.572;10.174;2022-08-21T06:20:58;6.27;;;5.20;;
3297;SDS011;1661;53.572;10.174;2022-08-21T06:23:24;5.70;;;4.30;;
3297;SDS011;1661;53.572;10.174;2022-08-21T06:25:51;7.20;;;5.03;;
3297;SDS011;1661;53.572;10.174;2022-08-21T06:28:18;7.77;;;5.30;;
3297;SDS011;1661;53.572;10.174;2022-08-21T06:30:45;8.20;;;4.90;;
3297;SDS011;1661;53.572;10.174;2022-08-21T06:33:13;9.20;;;6.00;;
3297;SDS011;1661;53.572;10.174;2022-08-21T06:35:40;6.30;;;5.30;;
3297;SDS011;1661;53.572;10.174;2022-08-21T06:38:07;8.03;;;4.50;;
3297;SDS011;1661;53.572;10.174;2022-08-21T06:40:34;6.63;;;5.17;;
3297;SDS011;1661;53.572;10.174;2022-08-21T06:43:05;5.83;;;5.33;;
3297;SDS011;1661;53.572;10.174;2022-08-21T06:45:32;7.10;;;5.00;;
3297;SDS011;1661;53.572;10.174;2022-08-21T06:47:59;4.23;;;3.93;;
3297;SDS011;1661;53.572;10.174;2022-08-21T06:50:27;8.33;;;4.07;;
3297;SDS011;1661;53.572;10.174;2022-08-21T06:52:58;5.10;;;4.50;;
3297;SDS011;1661;53.572;10.174;2022-08-21T06:55:25;6.10;;;4.70;;
3297;SDS011;1661;53.572;10.174;2022-08-21T06:57:52;9.73;;;4.03;;
3297;SDS011;1661;53.572;10.174;2022-08-21T07:00:19;12.30;;;4.67;;
3297;SDS011;1661;53.572;10.174;2022-08-21T07:02:46;11.03;;;4.83;;
3297;SDS011;1661;53.572;10.174;2022-08-21T07:05:13;6.47;;;3.80;;
3297;SDS011;1661;53.572;10.174;2022-08-21T07:07:41;7.10;;;4.30;;
3297;SDS011;1661;53.572;10.174;2022-08-21T07:10:08;4.80;;;4.33;;
3297;SDS011;1661;53.572;10.174;2022-08-21T07:12:35;5.13;;;4.60;;
3297;SDS011;1661;53.572;10.174;2022-08-21T07:15:02;8.83;;;3.70;;
3297;SDS011;1661;53.572;10.174;2022-08-21T07:17:29;4.30;;;3.20;;
3297;SDS011;1661;53.572;10.174;2022-08-21T07:19:56;4.77;;;3.23;;
3297;SDS011;1661;53.572;10.174;2022-08-21T07:22:23;6.90;;;3.57;;
3297;SDS011;1661;53.572;10.174;2022-08-21T07:24:51;6.53;;;3.87;;
3297;SDS011;1661;53.572;10.174;2022-08-21T07:27:18;8.50;;;3.40;;
3297;SDS011;1661;53.572;10.174;2022-08-21T07:29:44;7.00;;;2.77;;
3297;SDS011;1661;53.572;10.174;2022-08-21T07:32:11;5.80;;;3.73;;
3297;SDS011;1661;53.572;10.174;2022-08-21T07:34:39;5.30;;;2.70;;
3297;SDS011;1661;53.572;10.174;2022-08-21T07:37:06;5.40;;;2.80;;
3297;SDS011;1661;53.572;10.174;2022-08-21T07:39:33;9.60;;;2.50;;
3297;SDS011;1661;53.572;10.174;2022-08-21T07:42:01;8.43;;;3.10;;
3297;SDS011;1661;53.572;10.174;2022-08-21T07:44:28;4.07;;;2.27;;
3297;SDS011;1661;53.572;10.174;2022-08-21T07:46:55;3.80;;;2.70;;
3297;SDS011;1661;53.572;10.174;2022-08-21T07:49:21;4.93;;;2.80;;
3297;SDS011;1661;53.572;10.174;2022-08-21T07:51:48;3.77;;;2.67;;
3297;SDS011;1661;53.572;10.174;2022-08-21T07:54:15;5.70;;;2.67;;
3297;SDS011;1661;53.572;10.174;2022-08-21T07:56:42;4.93;;;2.50;;
3297;SDS011;1661;53.572;10.174;2022-08-21T07:59:10;3.30;;;2.33;;
3297;SDS011;1661;53.572;10.174;2022-08-21T08:01:37;8.70;;;2.90;;
3297;SDS011;1661;53.572;10.174;2022-08-21T08:04:04;3.73;;;2.70;;
3297;SDS011;1661;53.572;10.174;2022-08-21T08:06:30;6.23;;;2.63;;
3297;SDS011;1661;53.572;10.174;2022-08-21T08:08:57;3.13;;;1.77;;
3297;SDS011;1661;53.572;10.174;2022-08-21T08:11:24;8.70;;;3.13;;
3297;SDS011;1661;53.572;10.174;2022-08-21T08:13:51;7.63;;;2.50;;
3297;SDS011;1661;53.572;10.174;2022-08-21T08:16:19;5.63;;;2.80;;
3297;SDS011;1661;53.572;10.174;2022-08-21T08:18:46;7.17;;;2.80;;
3297;SDS011;1661;53.572;10.174;2022-08-21T08:21:14;6.50;;;2.17;;
3297;SDS011;1661;53.572;10.174;2022-08-21T08:23:42;5.77;;;2.60;;
3297;SDS011;1661;53.572;10.174;2022-08-21T08:26:10;6.10;;;2.80;;
3297;SDS011;1661;53.572;10.174;2022-08-21T08:28:37;7.37;;;3.27;;
3297;SDS011;1661;53.572;10.174;2022-08-21T08:31:04;3.60;;;2.60;;
3297;SDS011;1661;53.572;10.174;2022-08-21T08:33:32;3.30;;;2.23;;
3297;SDS011;1661;53.572;10.174;2022-08-21T08:35:59;6.27;;;2.53;;
3297;SDS011;1661;53.572;10.174;2022-08-21T08:38:25;5.93;;;2.53;;
3297;SDS011;1661;53.572;10.174;2022-08-21T08:40:54;6.17;;;2.53;;
3297;SDS011;1661;53.572;10.174;2022-08-21T08:43:27;8.40;;;3.20;;
3297;SDS011;1661;53.572;10.174;2022-08-21T08:45:55;4.20;;;2.50;;
3297;SDS011;1661;53.572;10.174;2022-08-21T08:48:34;5.07;;;2.53;;
3297;SDS011;1661;53.572;10.174;2022-08-21T08:51:08;2.67;;;2.40;;
3297;SDS011;1661;53.572;10.174;2022-08-21T08:53:42;6.27;;;2.53;;
3297;SDS011;1661;53.572;10.174;2022-08-21T08:56:15;3.77;;;2.33;;
3297;SDS011;1661;53.572;10.174;2022-08-21T08:58:47;6.77;;;2.77;;
3297;SDS011;1661;53.572;10.174;2022-08-21T09:01:17;2.43;;;2.23;;
3297;SDS011;1661;53.572;10.174;2022-08-21T09:03:47;4.10;;;2.30;;
3297;SDS011;1661;53.572;10.174;2022-08-21T09:06:19;2.37;;;2.17;;
3297;SDS011;1661;53.572;10.174;2022-08-21T09:08:57;6.37;;;2.90;;
3297;SDS011;1661;53.572;10.174;2022-08-21T09:11:35;5.27;;;2.53;;
3297;SDS011;1661;53.572;10.174;2022-08-21T09:14:10;5.13;;;2.80;;
3297;SDS011;1661;53.572;10.174;2022-08-21T09:16:46;5.33;;;2.20;;
3297;SDS011;1661;53.572;10.174;2022-08-21T09:19:24;4.03;;;2.87;;
3297;SDS011;1661;53.572;10.174;2022-08-21T09:22:03;4.90;;;2.60;;
3297;SDS011;1661;53.572;10.174;2022-08-21T09:24:38;2.40;;;2.20;;
3297;SDS011;1661;53.572;10.174;2022-08-21T09:27:13;7.43;;;2.10;;
3297;SDS011;1661;53.572;10.174;2022-08-21T09:29:44;5.10;;;2.70;;
3297;SDS011;1661;53.572;10.174;2022-08-21T09:32:15;5.00;;;2.10;;
3297;SDS011;1661;53.572;10.174;2022-08-21T09:34:55;2.63;;;2.20;;
3297;SDS011;1661;53.572;10.174;2022-08-21T09:37:24;5.40;;;2.30;;
3297;SDS011;1661;53.572;10.174;2022-08-21T09:39:53;5.83;;;2.23;;
3297;SDS011;1661;53.572;10.174;2022-08-21T09:42:21;3.00;;;2.17;;
3297;SDS011;1661;53.572;10.174;2022-08-21T09:44:51;5.00;;;3.33;;
3297;SDS011;1661;53.572;10.174;2022-08-21T09:47:36;5.63;;;2.63;;
3297;SDS011;1661;53.572;10.174;2022-08-21T09:50:09;5.33;;;3.03;;
3297;SDS011;1661;53.572;10.174;2022-08-21T09:52:41;7.40;;;3.33;;
3297;SDS011;1661;53.572;10.174;2022-08-21T09:55:15;12.80;;;2.50;;
3297;SDS011;1661;53.572;10.174;2022-08-21T09:57:59;7.67;;;4.13;;
3297;SDS011;1661;53.572;10.174;2022-08-21T10:00:28;6.27;;;3.23;;
3297;SDS011;1661;53.572;10.174;2022-08-21T10:03:07;6.37;;;2.90;;
3297;SDS011;1661;53.572;10.174;2022-08-21T10:05:40;5.37;;;3.17;;
3297;SDS011;1661;53.572;10.174;2022-08-21T10:08:16;4.20;;;2.77;;
3297;SDS011;1661;53.572;10.174;2022-08-21T10:10:44;11.13;;;3.53;;
3297;SDS011;1661;53.572;10.174;2022-08-21T10:13:12;13.23;;;3.53;;
3297;SDS011;1661;53.572;10.174;2022-08-21T10:15:46;5.13;;;3.43;;
3297;SDS011;1661;53.572;10.174;2022-08-21T10:18:18;4.93;;;2.73;;
3297;SDS011;1661;53.572;10.174;2022-08-21T10:20:54;9.50;;;2.70;;
3297;SDS011;1661;53.572;10.174;2022-08-21T10:23:29;4.93;;;2.80;;
3297;SDS011;1661;53.572;10.174;2022-08-21T10:26:08;6.53;;;3.97;;
3297;SDS011;1661;53.572;10.174;2022-08-21T10:28:51;14.03;;;4.90;;
3297;SDS011;1661;53.572;10.174;2022-08-21T10:31:28;8.67;;;3.90;;
3297;SDS011;1661;53.572;10.174;2022-08-21T10:34:05;10.93;;;3.50;;
3297;SDS011;1661;53.572;10.174;2022-08-21T10:36:44;12.10;;;3.63;;
3297;SDS011;1661;53.572;10.174;2022-08-21T10:39:16;6.43;;;2.87;;
3297;SDS011;1661;53.572;10.174;2022-08-21T10:41:56;8.87;;;3.87;;
3297;SDS011;1661;53.572;10.174;2022-08-21T10:44:39;12.77;;;3.70;;
3297;SDS011;1661;53.572;10.174;2022-08-21T10:47:16;6.80;;;3.33;;
3297;SDS011;1661;53.572;10.174;2022-08-21T10:49:47;5.73;;;2.83;;
3297;SDS011;1661;53.572;10.174;2022-08-21T10:52:27;5.90;;;3.13;;
3297;SDS011;1661;53.572;10.174;2022-08-21T10:55:06;10.63;;;4.47;;
3297;SDS011;1661;53.572;10.174;2022-08-21T10:57:39;6.87;;;3.73;;
3297;SDS011;1661;53.572;10.174;2022-08-21T11:00:08;7.47;;;3.03;;
3297;SDS011;1661;53.572;10.174;2022-08-21T11:02:38;9.23;;;3.40;;
3297;SDS011;1661;53.572;10.174;2022-08-21T11:05:10;9.83;;;3.37;;
3297;SDS011;1661;53.572;10.174;2022-08-21T11:07:43;6.47;;;2.93;;
3297;SDS011;1661;53.572;10.174;2022-08-21T11:10:14;5.27;;;2.73;;
3297;SDS011;1661;53.572;10.174;2022-08-21T11:12:46;7.60;;;3.90;;
3297;SDS011;1661;53.572;10.174;2022-08-21T11:15:24;9.30;;;2.70;;
3297;SDS011;1661;53.572;10.174;2022-08-21T11:18:00;4.93;;;2.73;;
3297;SDS011;1661;53.572;10.174;2022-08-21T11:20:36;4.80;;;2.87;;
3297;SDS011;1661;53.572;10.174;2022-08-21T11:23:11;7.10;;;3.30;;
3297;SDS011;1661;53.572;10.174;2022-08-21T11:25:44;7.53;;;2.73;;
3297;SDS011;1661;53.572;10.174;2022-08-21T11:28:15;7.20;;;2.87;;
3297;SDS011;1661;53.572;10.174;2022-08-21T11:30:48;4.40;;;2.50;;
3297;SDS011;1661;53.572;10.174;2022-08-21T11:33:25;4.10;;;3.10;;
3297;SDS011;1661;53.572;10.174;2022-08-21T11:36:07;5.60;;;2.93;;
3297;SDS011;1661;53.572;10.174;2022-08-21T11:38:45;5.37;;;2.73;;
3297;SDS011;1661;53.572;10.174;2022-08-21T11:41:22;6.00;;;3.07;;
3297;SDS011;1661;53.572;10.174;2022-08-21T11:43:55;6.30;;;2.90;;
3297;SDS011;1661;53.572;10.174;2022-08-21T11:46:31;5.73;;;2.87;;
3297;SDS011;1661;53.572;10.174;2022-08-21T11:49:13;3.70;;;2.23;;
3297;SDS011;1661;53.572;10.174;2022-08-21T11:52:02;2.90;;;2.60;;
3297;SDS011;1661;53.572;10.174;2022-08-21T11:54:41;5.87;;;2.97;;
3297;SDS011;1661;53.572;10.174;2022-08-21T11:57:14;2.83;;;2.50;;
3297;SDS011;1661;53.572;10.174;2022-08-21T11:59:45;4.83;;;3.10;;
3297;SDS011;1661;53.572;10.174;2022-08-21T12:02:18;7.37;;;2.80;;
3297;SDS011;1661;53.572;10.174;2022-08-21T12:04:48;8.30;;;2.90;;
3297;SDS011;1661;53.572;10.174;2022-08-21T12:07:28;6.03;;;2.30;;
3297;SDS011;1661;53.572;10.174;2022-08-21T12:09:59;5.73;;;3.10;;
3297;SDS011;1661;53.572;10.174;2022-08-21T12:12:27;4.40;;;2.53;;
3297;SDS011;1661;53.572;10.174;2022-08-21T12:15:13;5.97;;;2.63;;
3297;SDS011;1661;53.572;10.174;2022-08-21T12:17:52;5.50;;;2.50;;
3297;SDS011;1661;53.572;10.174;2022-08-21T12:20:26;3.23;;;2.50;;
3297;SDS011;1661;53.572;10.174;2022-08-21T12:23:14;3.10;;;2.23;;
3297;SDS011;1661;53.572;10.174;2022-08-21T12:25:46;3.00;;;2.00;;
3297;SDS011;1661;53.572;10.174;2022-08-21T12:28:25;5.43;;;3.10;;
3297;SDS011;1661;53.572;10.174;2022-08-21T12:30:53;3.10;;;2.00;;
3297;SDS011;1661;53.572;10.174;2022-08-21T12:33:22;4.57;;;2.53;;
3297;SDS011;1661;53.572;10.174;2022-08-21T12:35:51;3.17;;;2.40;;
3297;SDS011;1661;53.572;10.174;2022-08-21T12:38:27;2.70;;;1.87;;
3297;SDS011;1661;53.572;10.174;2022-08-21T12:40:59;4.70;;;2.50;;
3297;SDS011;1661;53.572;10.174;2022-08-21T12:43:31;3.37;;;2.23;;
3297;SDS011;1661;53.572;10.174;2022-08-21T12:46:01;2.37;;;2.17;;
3297;SDS011;1661;53.572;10.174;2022-08-21T12:48:31;4.70;;;1.90;;
3297;SDS011;1661;53.572;10.174;2022-08-21T12:51:06;3.03;;;2.70;;
3297;SDS011;1661;53.572;10.174;2022-08-21T12:53:41;4.40;;;3.00;;
3297;SDS011;1661;53.572;10.174;2022-08-21T12:56:14;3.73;;;1.90;;
3297;SDS011;1661;53.572;10.174;2022-08-21T12:58:45;4.17;;;2.03;;
3297;SDS011;1661;53.572;10.174;2022-08-21T13:01:16;5.93;;;2.40;;
3297;SDS011;1661;53.572;10.174;2022-08-21T13:03:48;3.20;;;2.20;;
3297;SDS011;1661;53.572;10.174;2022-08-21T13:06:16;2.73;;;1.97;;
3297;SDS011;1661;53.572;10.174;2022-08-21T13:08:45;4.23;;;2.47;;
3297;SDS011;1661;53.572;10.174;2022-08-21T13:11:16;11.17;;;2.17;;
3297;SDS011;1661;53.572;10.174;2022-08-21T13:13:48;4.47;;;2.97;;
3297;SDS011;1661;53.572;10.174;2022-08-21T13:16:18;6.60;;;5.97;;
3297;SDS011;1661;53.572;10.174;2022-08-21T13:18:53;7.00;;;3.50;;
3297;SDS011;1661;53.572;10.174;2022-08-21T13:21:26;6.13;;;3.40;;
3297;SDS011;1661;53.572;10.174;2022-08-21T13:23:54;6.03;;;2.73;;
3297;SDS011;1661;53.572;10.174;2022-08-21T13:26:33;2.43;;;2.07;;
3297;SDS011;1661;53.572;10.174;2022-08-21T13:29:05;4.00;;;2.30;;
3297;SDS011;1661;53.572;10.174;2022-08-21T13:31:34;3.40;;;2.13;;
3297;SDS011;1661;53.572;10.174;2022-08-21T13:34:01;2.53;;;1.83;;
3297;SDS011;1661;53.572;10.174;2022-08-21T13:36:29;5.83;;;2.13;;
3297;SDS011;1661;53.572;10.174;2022-08-21T13:39:01;2.53;;;1.90;;
3297;SDS011;1661;53.572;10.174;2022-08-21T13:41:30;5.70;;;2.63;;
3297;SDS011;1661;53.572;10.174;2022-08-21T13:44:02;4.00;;;1.87;;
3297;SDS011;1661;53.572;10.174;2022-08-21T13:46:32;4.17;;;2.03;;
3297;SDS011;1661;53.572;10.174;2022-08-21T13:49:02;7.10;;;2.03;;
3297;SDS011;1661;53.572;10.174;2022-08-21T13:51:31;3.70;;;2.13;;
3297;SDS011;1661;53.572;10.174;2022-08-21T13:53:58;2.03;;;1.73;;
3297;SDS011;1661;53.572;10.174;2022-08-21T13:56:27;1.80;;;1.40;;
3297;SDS011;1661;53.572;10.174;2022-08-21T13:58:56;2.60;;;1.80;;
3297;SDS011;1661;53.572;10.174;2022-08-21T14:01:26;3.80;;;2.10;;
3297;SDS011;1661;53.572;10.174;2022-08-21T14:03:57;6.43;;;1.67;;
3297;SDS011;1661;53.572;10.174;2022-08-21T14:06:27;2.20;;;1.63;;
3297;SDS011;1661;53.572;10.174;2022-08-21T14:08:59;1.87;;;1.60;;
3297;SDS011;1661;53.572;10.174;2022-08-21T14:11:28;5.17;;;2.27;;
3297;SDS011;1661;53.572;10.174;2022-08-21T14:14:01;2.13;;;1.70;;
3297;SDS011;1661;53.572;10.174;2022-08-21T14:16:42;4.77;;;2.97;;
3297;SDS011;1661;53.572;10.174;2022-08-21T14:19:15;5.10;;;4.60;;
3297;SDS011;1661;53.572;10.174;2022-08-21T14:21:45;6.07;;;3.63;;
3297;SDS011;1661;53.572;10.174;2022-08-21T14:24:13;2.33;;;2.10;;
3297;SDS011;1661;53.572;10.174;2022-08-21T14:26:51;3.27;;;2.30;;
3297;SDS011;1661;53.572;10.174;2022-08-21T14:29:20;4.50;;;1.63;;
3297;SDS011;1661;53.572;10.174;2022-08-21T14:31:53;5.50;;;2.37;;
3297;SDS011;1661;53.572;10.174;2022-08-21T14:34:22;2.07;;;1.60;;
3297;SDS011;1661;53.572;10.174;2022-08-21T14:36:52;4.00;;;1.50;;
3297;SDS011;1661;53.572;10.174;2022-08-21T14:39:19;2.10;;;1.40;;
3297;SDS011;1661;53.572;10.174;2022-08-21T14:41:47;5.33;;;1.97;;
3297;SDS011;1661;53.572;10.174;2022-08-21T14:44:14;2.53;;;1.63;;
3297;SDS011;1661;53.572;10.174;2022-08-21T14:46:43;4.53;;;2.13;;
3297;SDS011;1661;53.572;10.174;2022-08-21T14:49:11;6.10;;;1.80;;
3297;SDS011;1661;53.572;10.174;2022-08-21T14:51:38;2.07;;;1.83;;
3297;SDS011;1661;53.572;10.174;2022-08-21T14:54:05;3.20;;;2.03;;
3297;SDS011;1661;53.572;10.174;2022-08-21T14:56:33;5.53;;;2.20;;
3297;SDS011;1661;53.572;10.174;2022-08-21T14:59:04;4.23;;;2.17;;
3297;SDS011;1661;53.572;10.174;2022-08-21T15:01:44;2.37;;;1.80;;
3297;SDS011;1661;53.572;10.174;2022-08-21T15:04:12;2.40;;;2.17;;
3297;SDS011;1661;53.572;10.174;2022-08-21T15:06:39;5.63;;;2.20;;
3297;SDS011;1661;53.572;10.174;2022-08-21T15:09:05;2.37;;;1.90;;
3297;SDS011;1661;53.572;10.174;2022-08-21T15:11:32;5.07;;;2.43;;
3297;SDS011;1661;53.572;10.174;2022-08-21T15:14:00;2.30;;;1.73;;
3297;SDS011;1661;53.572;10.174;2022-08-21T15:16:29;3.10;;;1.60;;